Etusivu
METAR-TAF:

METAR-TAF

Lentoasemat :

Hemavan, Ruotsi

Leveyspiiri: 65-48-22N, Pituuspiiri: 015-04-58E, korkeus merenpinnasta: 458 m

Tämänhetkinen sää

Tämä raportti tehtiin 27 minuuttia sitten, kello 10.20 UTC
Tuuli 18 kn etelästä
Lämpötila -6°C
Kosteus 79%
Ilmanpaine 1005 hPa
Näkyvyys: 4600 m
heikkoa lumisadetta

METAR: ESUT 121020Z AUTO 17018KT 4600 -SN VV033 M06/M09 Q1005

Aika: 11:47 (10:47 UTC)


TAF: puuttuu

Säähavainnot ja -ennusteet yli 4000 lentoasemalta (METAR- ja TAF-raportit).

Käytössä olevat sääasemat on merkitty karttaan keltaisilla ja punaisilla pisteillä.

Aseta hiiri pisteen päälle nähdäksesi sääaseman nimen.

Klikkaa sitten nähdäksesi säähavainnot ja -ennusteet.

Kartan vaihtaminen: klikkaa mustalla rastilla varustettuja vihreitä pisteitä, niin voit zoomata sisään; viivalla varustettua vihreää pistettä, niin voit zoomata ulos tai vihreitä nuolia, niin pääset viereisille kartoille.


METAR-TAF: